Time;durP1;ratioP1;P1;durP2;ratioP2;P2;SDS_P1;SDS_P2;PMS_P1;PMS_P2;Temp;Humidity;BMP_temperature;BMP_pressure;BME280_temperature;BME280_humidity;BME280_pressure;Samples;Min_cycle;Max_cycle;Signal;HPM_P1;HPM_P2
2023/01/08 00:01:15;;;;;;;62.67;24.87;;;4.80;99.90;;;;;;4993933;28;20314;-82
2023/01/08 00:03:42;;;;;;;58.47;25.10;;;4.80;99.90;;;;;;4995687;28;20529;-85
2023/01/08 00:06:12;;;;;;;57.37;24.00;;;4.90;99.90;;;;;;4996565;28;20198;-85
2023/01/08 00:08:40;;;;;;;54.50;23.57;;;4.70;99.90;;;;;;4994208;28;20189;-85
2023/01/08 00:11:07;;;;;;;61.70;24.47;;;4.70;99.90;;;;;;4995098;28;20205;-81
2023/01/08 00:13:34;;;;;;;62.67;24.97;;;4.60;99.90;;;;;;4994462;28;20289;-82
2023/01/08 00:16:06;;;;;;;53.50;23.33;;;4.70;99.90;;;;;;4996671;28;20645;-80
2023/01/08 00:18:33;;;;;;;56.20;24.27;;;4.60;99.90;;;;;;4995622;28;20194;-85
2023/01/08 00:21:01;;;;;;;54.87;23.97;;;4.60;99.90;;;;;;4994059;28;20248;-84
2023/01/08 00:23:31;;;;;;;51.57;23.37;;;4.60;99.90;;;;;;4978147;28;20546;-83
2023/01/08 00:26:04;;;;;;;55.63;23.53;;;4.60;99.90;;;;;;4994029;28;20232;-78
2023/01/08 00:28:31;;;;;;;51.23;23.27;;;4.60;99.90;;;;;;4996836;28;20213;-82
2023/01/08 00:30:58;;;;;;;49.87;23.23;;;4.60;99.90;;;;;;4993925;28;20207;-85
2023/01/08 00:33:27;;;;;;;48.80;22.90;;;4.60;99.90;;;;;;4994595;28;20244;-82
2023/01/08 00:35:54;;;;;;;47.27;23.00;;;4.70;99.90;;;;;;4977649;28;20227;-80
2023/01/08 00:38:25;;;;;;;52.13;23.97;;;4.60;99.90;;;;;;4995299;28;20207;-78
2023/01/08 00:40:55;;;;;;;49.33;22.50;;;4.60;99.90;;;;;;4992942;28;20204;-80
2023/01/08 00:43:23;;;;;;;53.93;23.57;;;4.70;99.90;;;;;;4994370;28;20225;-84
2023/01/08 00:45:52;;;;;;;49.20;22.70;;;4.80;99.90;;;;;;4993673;28;20208;-80
2023/01/08 00:48:23;;;;;;;50.10;21.87;;;4.70;99.90;;;;;;4993925;28;20204;-81
2023/01/08 00:50:52;;;;;;;46.70;21.37;;;4.60;99.90;;;;;;4993347;28;20205;-85
2023/01/08 00:53:20;;;;;;;45.67;21.73;;;4.50;99.90;;;;;;4977982;28;20206;-79
2023/01/08 00:55:47;;;;;;;47.00;22.67;;;4.50;99.90;;;;;;4989989;28;20231;-78
2023/01/08 00:58:14;;;;;;;49.23;22.80;;;4.60;99.90;;;;;;4990192;28;20201;-81
2023/01/08 01:00:41;;;;;;;44.20;21.20;;;4.60;99.90;;;;;;4989888;28;20571;-81
2023/01/08 01:03:10;;;;;;;45.57;21.53;;;4.50;99.90;;;;;;4975274;28;20227;-83
2023/01/08 01:05:37;;;;;;;44.87;20.50;;;4.40;99.90;;;;;;4989642;28;20202;-81
2023/01/08 01:08:04;;;;;;;43.97;21.07;;;4.40;99.90;;;;;;4990832;28;20201;-79
2023/01/08 01:10:31;;;;;;;46.57;22.60;;;4.30;99.90;;;;;;4990295;28;20728;-80
2023/01/08 01:12:58;;;;;;;45.07;21.00;;;4.20;99.90;;;;;;4989782;28;20207;-82
2023/01/08 01:15:25;;;;;;;45.83;21.40;;;4.30;99.90;;;;;;4989562;28;20194;-80
2023/01/08 01:17:52;;;;;;;43.03;20.90;;;4.20;99.90;;;;;;4990451;28;20206;-81
2023/01/08 01:20:19;;;;;;;42.90;21.20;;;4.20;99.90;;;;;;4973801;28;20205;-82
2023/01/08 01:22:46;;;;;;;46.07;22.17;;;4.10;99.90;;;;;;4991747;28;20245;-78
2023/01/08 01:25:13;;;;;;;49.87;21.60;;;4.20;99.90;;;;;;4989853;28;20193;-80
2023/01/08 01:27:40;;;;;;;43.57;21.93;;;4.30;99.90;;;;;;4974660;28;20518;-81
2023/01/08 01:30:08;;;;;;;42.00;21.30;;;4.30;99.90;;;;;;4989955;28;20197;-82
2023/01/08 01:32:35;;;;;;;45.20;21.47;;;4.20;99.90;;;;;;4990594;28;20215;-79
2023/01/08 01:35:02;;;;;;;43.73;21.27;;;4.30;99.90;;;;;;4989106;28;20238;-82
2023/01/08 01:37:29;;;;;;;46.77;21.17;;;4.30;99.90;;;;;;4989734;28;20706;-80
2023/01/08 01:39:56;;;;;;;47.13;21.93;;;4.20;99.90;;;;;;4974519;28;20329;-85
2023/01/08 01:42:39;;;;;;;45.67;21.40;;;4.30;99.90;;;;;;4974406;28;20752;-82
2023/01/08 01:45:26;;;;;;;41.57;20.47;;;4.30;99.90;;;;;;4972820;28;20536;-84
2023/01/08 01:47:58;;;;;;;46.63;21.43;;;4.20;99.90;;;;;;4972289;28;20719;-80
2023/01/08 01:50:32;;;;;;;45.77;21.50;;;4.30;99.90;;;;;;4989179;28;20207;-83
2023/01/08 01:52:58;;;;;;;45.27;21.30;;;4.30;99.90;;;;;;4989344;28;20304;-83
2023/01/08 01:55:26;;;;;;;45.93;21.40;;;4.30;99.90;;;;;;4988912;28;20261;-81
2023/01/08 01:58:06;;;;;;;47.57;21.20;;;4.30;99.90;;;;;;4989811;28;20562;-80
2023/01/08 02:00:34;;;;;;;45.97;21.00;;;4.30;99.90;;;;;;4989224;28;20316;-83
2023/01/08 02:03:04;;;;;;;48.47;22.20;;;4.30;99.90;;;;;;4989496;28;20249;-80
2023/01/08 02:05:42;;;;;;;46.50;21.90;;;4.40;99.90;;;;;;4973416;28;20203;-78
2023/01/08 02:08:14;;;;;;;48.73;22.20;;;4.40;99.90;;;;;;4989430;28;20194;-82
2023/01/08 02:10:57;;;;;;;44.77;20.70;;;4.30;99.90;;;;;;4973076;28;20186;-81
2023/01/08 02:13:32;;;;;;;40.63;19.60;;;4.30;99.90;;;;;;4989640;28;20296;-80
2023/01/08 02:15:59;;;;;;;39.67;19.30;;;4.30;99.90;;;;;;4973338;28;20205;-79
2023/01/08 02:18:33;;;;;;;38.87;19.70;;;4.30;99.90;;;;;;4974295;28;20530;-79
2023/01/08 02:21:09;;;;;;;39.97;20.13;;;4.30;99.90;;;;;;4989680;28;20212;-80
2023/01/08 02:23:57;;;;;;;38.07;19.60;;;4.30;99.90;;;;;;4973499;28;20284;-84
2023/01/08 02:26:31;;;;;;;40.90;20.03;;;4.40;99.90;;;;;;4972981;28;20204;-80
2023/01/08 02:29:08;;;;;;;36.93;18.80;;;4.40;99.90;;;;;;4989322;28;20202;-81
2023/01/08 02:31:38;;;;;;;36.53;18.23;;;4.40;99.90;;;;;;4974455;28;20193;-80
2023/01/08 02:34:06;;;;;;;31.83;17.33;;;4.40;99.90;;;;;;4975641;28;20186;-83
2023/01/08 02:36:34;;;;;;;31.57;16.57;;;4.40;99.90;;;;;;4990194;28;20241;-79
2023/01/08 02:39:34;;;;;;;30.40;15.67;;;4.30;99.90;;;;;;4993076;28;20230;-78
2023/01/08 02:42:10;;;;;;;30.90;14.60;;;4.30;99.90;;;;;;4992769;28;20221;-79
2023/01/08 02:45:14;;;;;;;27.57;14.27;;;4.30;99.90;;;;;;4992304;28;20197;-79
2023/01/08 02:47:54;;;;;;;27.50;14.43;;;4.20;99.90;;;;;;4976458;28;20198;-79
2023/01/08 02:50:48;;;;;;;26.17;14.10;;;4.20;99.90;;;;;;4992488;28;20697;-80
2023/01/08 02:53:22;;;;;;;27.50;13.80;;;4.10;99.90;;;;;;4992478;28;20212;-80
2023/01/08 02:55:53;;;;;;;25.87;13.63;;;4.10;99.90;;;;;;4978732;28;20562;-80
2023/01/08 02:58:22;;;;;;;22.77;12.80;;;4.10;99.90;;;;;;4959831;28;20608;-80
2023/01/08 03:00:50;;;;;;;24.27;12.80;;;4.00;99.90;;;;;;4976232;28;20202;-79
2023/01/08 03:03:26;;;;;;;27.67;13.33;;;3.90;99.90;;;;;;4975851;28;20316;-79
2023/01/08 03:05:57;;;;;;;25.80;13.33;;;3.90;99.90;;;;;;4959717;28;20194;-80
2023/01/08 03:08:25;;;;;;;25.97;13.13;;;4.00;99.90;;;;;;4976411;28;20206;-80
2023/01/08 03:10:58;;;;;;;23.73;12.47;;;3.80;99.90;;;;;;4976990;28;20205;-79
2023/01/08 03:13:40;;;;;;;27.23;13.10;;;3.80;99.90;;;;;;4977198;28;20186;-83
2023/01/08 03:16:16;;;;;;;26.30;12.57;;;3.80;99.90;;;;;;4976631;28;20242;-78
2023/01/08 03:19:01;;;;;;;28.07;12.83;;;3.80;99.90;;;;;;4960847;28;20215;-80
2023/01/08 03:21:30;;;;;;;24.17;12.47;;;3.70;99.90;;;;;;4944455;28;20312;-80
2023/01/08 03:23:57;;;;;;;23.27;12.33;;;3.60;99.90;;;;;;4959097;28;20329;-79
2023/01/08 03:26:26;;;;;;;25.10;12.63;;;3.60;99.90;;;;;;4959724;28;20245;-77
2023/01/08 03:28:55;;;;;;;24.03;11.63;;;3.60;99.90;;;;;;4959913;28;20197;-79
2023/01/08 03:31:24;;;;;;;24.53;12.60;;;3.50;99.90;;;;;;4977404;28;20233;-78
2023/01/08 03:33:52;;;;;;;22.50;11.37;;;3.40;99.90;;;;;;4977009;28;20297;-84
2023/01/08 03:36:23;;;;;;;23.80;11.93;;;3.30;99.90;;;;;;4975542;28;20269;-83
2023/01/08 03:38:58;;;;;;;22.57;12.23;;;3.40;99.90;;;;;;4975584;28;20249;-80
2023/01/08 03:41:28;;;;;;;25.13;12.53;;;3.40;99.90;;;;;;4959472;28;20208;-78
2023/01/08 03:43:55;;;;;;;25.00;12.70;;;3.30;99.90;;;;;;4974919;28;20590;-78
2023/01/08 03:46:29;;;;;;;22.27;12.00;;;3.40;99.90;;;;;;4975304;28;20670;-81
2023/01/08 03:48:58;;;;;;;26.40;12.43;;;3.50;99.90;;;;;;4976368;28;20198;-79
2023/01/08 03:51:26;;;;;;;25.10;12.40;;;3.30;99.90;;;;;;4975774;28;20205;-80
2023/01/08 03:53:57;;;;;;;24.57;12.23;;;3.30;99.90;;;;;;4959221;28;20219;-79
2023/01/08 03:56:24;;;;;;;23.80;12.60;;;3.40;99.90;;;;;;4989763;28;20236;-83
2023/01/08 03:58:51;;;;;;;25.27;12.27;;;3.40;99.90;;;;;;4975596;28;20337;-83
2023/01/08 04:01:18;;;;;;;23.87;12.40;;;3.40;99.90;;;;;;4991617;28;20204;-85
2023/01/08 04:03:46;;;;;;;25.10;12.57;;;3.40;99.90;;;;;;4991295;28;20239;-84
2023/01/08 04:06:13;;;;;;;24.87;12.33;;;3.50;99.90;;;;;;4990873;28;20613;-81
2023/01/08 04:08:39;;;;;;;23.80;12.20;;;3.50;99.90;;;;;;4990840;28;20201;-77
2023/01/08 04:11:06;;;;;;;22.73;11.63;;;3.40;99.90;;;;;;4975746;28;20300;-84
2023/01/08 04:13:33;;;;;;;22.83;11.63;;;3.40;99.90;;;;;;4976329;28;20253;-82
2023/01/08 04:16:00;;;;;;;23.90;11.50;;;3.50;99.90;;;;;;4975743;28;20206;-79
2023/01/08 04:18:27;;;;;;;19.17;11.03;;;3.40;99.90;;;;;;4991260;28;20714;-85
2023/01/08 04:20:54;;;;;;;22.13;11.60;;;3.40;99.90;;;;;;4976511;28;20205;-79
2023/01/08 04:23:23;;;;;;;21.23;10.87;;;3.40;99.90;;;;;;4990618;28;20248;-78
2023/01/08 04:25:50;;;;;;;19.77;10.30;;;3.40;99.90;;;;;;4990650;28;20196;-80
2023/01/08 04:28:18;;;;;;;20.13;10.60;;;3.40;99.90;;;;;;4975132;28;20197;-83
2023/01/08 04:30:45;;;;;;;19.47;10.60;;;3.30;99.90;;;;;;4974848;28;20300;-77
2023/01/08 04:33:12;;;;;;;22.43;11.03;;;3.30;99.90;;;;;;4990572;28;20625;-78
2023/01/08 04:35:39;;;;;;;22.43;11.07;;;3.30;99.90;;;;;;4990819;28;20201;-81
2023/01/08 04:38:06;;;;;;;20.07;10.70;;;3.30;99.90;;;;;;4990847;28;20286;-79
2023/01/08 04:40:33;;;;;;;23.37;11.83;;;3.30;99.90;;;;;;4990642;28;20583;-81
2023/01/08 04:43:00;;;;;;;20.40;11.30;;;3.30;99.90;;;;;;4990652;28;20229;-78
2023/01/08 04:45:27;;;;;;;22.60;11.77;;;3.30;99.90;;;;;;4990458;28;20258;-78
2023/01/08 04:47:59;;;;;;;21.47;11.43;;;3.30;99.90;;;;;;4997370;28;20207;-82
2023/01/08 04:50:26;;;;;;;24.63;11.77;;;3.40;99.90;;;;;;4975298;28;20189;-78
2023/01/08 04:52:53;;;;;;;22.27;11.33;;;3.30;99.90;;;;;;4990424;28;20276;-84
2023/01/08 04:55:20;;;;;;;23.47;11.27;;;3.30;99.90;;;;;;4992045;28;20233;-80
2023/01/08 04:57:47;;;;;;;23.77;11.47;;;3.40;99.90;;;;;;4990571;28;20240;-79
2023/01/08 05:00:14;;;;;;;21.93;11.57;;;3.40;99.90;;;;;;4989407;28;20206;-81
2023/01/08 05:02:41;;;;;;;25.83;11.50;;;3.50;99.90;;;;;;4989916;28;20359;-82
2023/01/08 05:05:09;;;;;;;24.60;10.50;;;3.60;99.90;;;;;;4990074;28;20296;-79
2023/01/08 05:07:36;;;;;;;20.17;9.83;;;3.60;99.90;;;;;;4974948;28;20643;-79
2023/01/08 05:10:03;;;;;;;18.63;9.70;;;3.40;99.90;;;;;;4990236;28;20206;-83
2023/01/08 05:12:30;;;;;;;21.43;10.20;;;3.40;99.90;;;;;;4973910;28;20272;-85
2023/01/08 05:14:57;;;;;;;21.90;10.57;;;3.30;99.90;;;;;;4989744;28;20218;-80
2023/01/08 05:17:24;;;;;;;19.20;9.97;;;3.40;99.90;;;;;;4975010;28;20266;-83
2023/01/08 05:19:51;;;;;;;18.23;9.30;;;3.40;99.90;;;;;;4989523;28;20668;-80
2023/01/08 05:22:18;;;;;;;20.77;9.70;;;3.30;99.90;;;;;;5002719;28;20193;-79
2023/01/08 05:24:45;;;;;;;18.37;9.50;;;3.30;99.90;;;;;;4989922;28;20201;-80
2023/01/08 05:27:12;;;;;;;20.30;9.63;;;3.50;99.90;;;;;;4973724;28;20278;-79
2023/01/08 05:29:39;;;;;;;19.67;9.43;;;3.40;99.90;;;;;;4991114;28;20224;-81
2023/01/08 05:32:14;;;;;;;18.37;9.63;;;3.30;99.90;;;;;;4975058;28;20285;-79
2023/01/08 05:34:42;;;;;;;19.17;8.50;;;3.30;99.90;;;;;;4974818;28;20197;-81
2023/01/08 05:37:09;;;;;;;19.57;9.93;;;3.30;99.90;;;;;;4973351;28;20215;-78
2023/01/08 05:39:36;;;;;;;20.43;9.57;;;3.20;99.90;;;;;;4974380;28;20190;-78
2023/01/08 05:42:03;;;;;;;16.63;8.90;;;3.20;99.90;;;;;;4974308;28;20206;-79
2023/01/08 05:44:30;;;;;;;17.10;9.43;;;3.20;99.90;;;;;;4989533;28;20217;-79
2023/01/08 05:46:57;;;;;;;15.90;8.77;;;3.30;99.90;;;;;;4989503;28;20211;-80
2023/01/08 05:49:24;;;;;;;20.17;9.53;;;3.30;99.90;;;;;;4989835;28;20205;-81
2023/01/08 05:51:51;;;;;;;19.03;9.03;;;3.30;99.90;;;;;;4989685;28;20205;-81
2023/01/08 05:54:18;;;;;;;19.30;9.90;;;3.30;99.90;;;;;;4972729;28;20363;-80
2023/01/08 05:56:45;;;;;;;18.13;8.90;;;3.20;99.90;;;;;;4973137;28;20204;-80
2023/01/08 05:59:13;;;;;;;16.90;8.90;;;3.20;99.90;;;;;;4956589;28;20206;-82
2023/01/08 06:01:40;;;;;;;18.60;9.30;;;3.20;99.90;;;;;;4957259;28;20201;-77
2023/01/08 06:04:07;;;;;;;18.77;9.23;;;3.10;99.90;;;;;;4956563;28;20525;-79
2023/01/08 06:06:34;;;;;;;18.63;9.10;;;3.10;99.90;;;;;;4972945;28;20220;-83
2023/01/08 06:09:01;;;;;;;20.33;9.27;;;3.10;99.90;;;;;;4957034;28;20248;-79
2023/01/08 06:11:28;;;;;;;18.90;9.27;;;3.20;99.90;;;;;;4977163;28;20198;-78
2023/01/08 06:13:55;;;;;;;19.30;10.27;;;3.10;99.90;;;;;;4960840;28;20221;-79
2023/01/08 06:16:22;;;;;;;17.47;9.13;;;3.10;99.90;;;;;;4960537;28;20198;-78
2023/01/08 06:18:49;;;;;;;18.50;9.53;;;3.20;99.90;;;;;;4976782;28;20205;-80
2023/01/08 06:21:16;;;;;;;19.07;9.60;;;3.20;99.90;;;;;;4961261;28;20190;-79
2023/01/08 06:23:43;;;;;;;18.33;9.87;;;3.10;99.90;;;;;;4977350;28;20257;-79
2023/01/08 06:26:10;;;;;;;18.43;9.53;;;3.10;99.90;;;;;;4960509;28;20253;-78
2023/01/08 06:28:36;;;;;;;18.83;9.47;;;3.20;99.90;;;;;;4976990;28;20225;-81
2023/01/08 06:31:04;;;;;;;19.97;9.73;;;3.10;99.90;;;;;;4976496;28;20585;-79
2023/01/08 06:33:31;;;;;;;18.83;9.87;;;3.20;99.90;;;;;;4960649;28;20204;-79
2023/01/08 06:36:03;;;;;;;16.87;8.83;;;3.20;99.90;;;;;;4977912;28;20208;-78
2023/01/08 06:38:32;;;;;;;17.50;8.40;;;3.20;99.90;;;;;;4960750;28;20228;-80
2023/01/08 06:41:03;;;;;;;15.10;8.60;;;3.20;99.90;;;;;;4977883;28;20648;-79
2023/01/08 06:43:31;;;;;;;15.37;8.20;;;3.20;99.90;;;;;;4982476;28;20229;-80
2023/01/08 06:46:08;;;;;;;17.37;9.67;;;3.30;99.90;;;;;;4976238;28;20206;-83
2023/01/08 06:48:35;;;;;;;17.87;8.03;;;3.20;99.90;;;;;;4961149;28;20231;-82
2023/01/08 06:51:03;;;;;;;19.97;9.00;;;3.20;99.90;;;;;;4960272;28;20216;-85
2023/01/08 06:53:31;;;;;;;16.43;8.57;;;3.20;99.90;;;;;;4977431;28;20593;-81
2023/01/08 06:55:58;;;;;;;18.17;8.87;;;3.20;99.90;;;;;;4989727;28;20259;-80
2023/01/08 06:58:26;;;;;;;20.03;8.60;;;3.20;99.90;;;;;;4995523;28;20294;-78
2023/01/08 07:00:53;;;;;;;17.60;8.20;;;3.20;99.90;;;;;;4996456;28;20259;-80
2023/01/08 07:03:20;;;;;;;16.97;8.53;;;3.20;99.90;;;;;;4995967;28;20592;-83
2023/01/08 07:05:49;;;;;;;16.80;8.50;;;3.20;99.90;;;;;;4995471;28;20207;-80
2023/01/08 07:08:17;;;;;;;16.47;8.97;;;3.20;99.90;;;;;;4996871;28;20620;-80
2023/01/08 07:10:44;;;;;;;17.20;8.83;;;3.20;99.90;;;;;;4995564;28;20302;-80
2023/01/08 07:13:11;;;;;;;17.57;8.90;;;3.20;99.90;;;;;;4995138;28;20231;-78
2023/01/08 07:15:39;;;;;;;19.30;9.00;;;3.20;99.90;;;;;;4978646;28;20285;-83
2023/01/08 07:18:11;;;;;;;19.10;9.27;;;3.20;99.90;;;;;;4996703;28;20198;-82
2023/01/08 07:20:38;;;;;;;17.47;8.73;;;3.30;99.90;;;;;;4995328;28;20204;-81
2023/01/08 07:23:08;;;;;;;17.07;9.07;;;3.10;99.90;;;;;;4996084;28;20204;-85
2023/01/08 07:25:35;;;;;;;18.50;9.20;;;3.20;99.90;;;;;;4996308;28;20251;-85
2023/01/08 07:28:02;;;;;;;20.60;9.90;;;3.20;99.90;;;;;;4978552;28;20235;-84
2023/01/08 07:30:29;;;;;;;18.83;9.67;;;3.10;99.90;;;;;;4994964;28;20225;-83
2023/01/08 07:33:00;;;;;;;17.63;9.53;;;3.20;99.90;;;;;;4995062;28;20197;-81
2023/01/08 07:35:28;;;;;;;21.77;9.30;;;3.10;99.90;;;;;;4994810;28;20201;-84
2023/01/08 07:37:55;;;;;;;20.47;9.87;;;3.20;99.90;;;;;;4995959;28;20299;-80
2023/01/08 07:40:22;;;;;;;18.00;9.53;;;3.20;99.90;;;;;;4978580;28;20201;-85
2023/01/08 07:43:00;;;;;;;21.50;9.53;;;3.20;99.90;;;;;;4980059;28;20211;-87
2023/01/08 07:45:28;;;;;;;18.87;9.83;;;3.10;99.90;;;;;;4962331;28;20204;-79
2023/01/08 07:47:58;;;;;;;19.23;9.23;;;3.10;99.90;;;;;;4978564;28;20247;-85
2023/01/08 07:50:26;;;;;;;19.93;10.07;;;3.10;99.90;;;;;;4994721;28;20208;-80
2023/01/08 07:52:57;;;;;;;18.80;9.70;;;3.10;99.90;;;;;;4994625;28;20228;-85
2023/01/08 07:55:24;;;;;;;17.40;9.63;;;3.20;99.90;;;;;;4991102;28;20321;-85
2023/01/08 07:57:51;;;;;;;20.87;9.77;;;3.20;99.90;;;;;;4991453;28;20713;-83
2023/01/08 08:00:18;;;;;;;18.07;9.27;;;3.10;99.90;;;;;;4960120;28;20202;-82
2023/01/08 08:02:45;;;;;;;21.47;9.63;;;3.20;99.90;;;;;;4991693;28;20638;-82
2023/01/08 08:05:12;;;;;;;19.93;9.30;;;3.20;99.90;;;;;;4975508;28;20624;-82
2023/01/08 08:07:39;;;;;;;19.70;9.37;;;3.20;99.90;;;;;;4991285;28;20560;-82
2023/01/08 08:10:07;;;;;;;22.27;9.47;;;3.10;99.90;;;;;;4958996;28;20598;-83
2023/01/08 08:12:34;;;;;;;16.20;8.53;;;3.10;99.90;;;;;;4976123;28;20285;-79
2023/01/08 08:15:01;;;;;;;20.07;9.60;;;3.00;99.90;;;;;;4990921;28;20248;-84
2023/01/08 08:17:28;;;;;;;21.87;9.97;;;3.00;99.90;;;;;;4991012;28;20197;-79
2023/01/08 08:19:55;;;;;;;22.03;9.40;;;3.20;99.90;;;;;;4976156;28;20221;-83
2023/01/08 08:22:22;;;;;;;20.63;9.90;;;3.10;99.90;;;;;;4974671;28;20194;-84
2023/01/08 08:24:48;;;;;;;18.97;10.03;;;3.10;99.90;;;;;;4974443;28;20647;-77
2023/01/08 08:27:15;;;;;;;18.37;9.60;;;3.10;99.90;;;;;;4976126;28;20557;-83
2023/01/08 08:29:42;;;;;;;21.73;10.20;;;3.10;99.90;;;;;;4990649;28;20201;-83
2023/01/08 08:32:09;;;;;;;21.57;9.50;;;3.10;99.90;;;;;;4991739;28;20648;-83
2023/01/08 08:34:36;;;;;;;20.90;9.87;;;3.10;99.90;;;;;;4974982;28;20204;-85
2023/01/08 08:37:03;;;;;;;20.23;9.73;;;3.30;99.90;;;;;;4984219;28;20218;-82
2023/01/08 08:39:30;;;;;;;17.53;9.57;;;3.20;99.90;;;;;;4990647;28;20206;-77
2023/01/08 08:41:57;;;;;;;21.23;9.80;;;3.30;99.90;;;;;;4990453;28;20227;-83
2023/01/08 08:44:24;;;;;;;18.77;9.90;;;3.40;99.90;;;;;;4990657;28;20538;-83
2023/01/08 08:46:51;;;;;;;19.10;9.73;;;3.30;99.90;;;;;;4974126;28;20348;-75
2023/01/08 08:49:18;;;;;;;22.10;9.90;;;3.40;99.90;;;;;;4974091;28;20201;-76
2023/01/08 08:51:45;;;;;;;19.93;9.77;;;3.50;99.90;;;;;;4990351;28;20182;-78
2023/01/08 08:54:15;;;;;;;20.93;9.37;;;3.50;99.90;;;;;;4990101;28;20191;-83
2023/01/08 08:56:42;;;;;;;18.70;9.90;;;3.40;99.90;;;;;;4974990;28;20650;-75
2023/01/08 08:59:11;;;;;;;19.97;9.87;;;3.50;99.90;;;;;;4974384;28;20209;-81
2023/01/08 09:01:41;;;;;;;19.80;9.53;;;3.50;99.90;;;;;;4974072;28;20289;-79
2023/01/08 09:04:08;;;;;;;20.13;9.83;;;3.50;99.90;;;;;;4976215;28;20213;-76
2023/01/08 09:06:35;;;;;;;19.20;10.17;;;3.60;99.90;;;;;;4957833;28;20293;-78
2023/01/08 09:09:02;;;;;;;23.73;10.93;;;3.40;99.90;;;;;;4973581;28;20202;-75
2023/01/08 09:11:30;;;;;;;19.97;9.67;;;3.50;99.90;;;;;;4973475;28;20202;-75
2023/01/08 09:13:57;;;;;;;19.03;10.20;;;3.50;99.90;;;;;;4957676;28;20226;-75
2023/01/08 09:16:24;;;;;;;20.80;10.17;;;3.60;99.90;;;;;;4957448;28;20205;-76
2023/01/08 09:18:51;;;;;;;21.40;10.70;;;3.70;99.90;;;;;;4973969;28;20670;-76
2023/01/08 09:21:18;;;;;;;20.73;10.20;;;3.80;99.90;;;;;;4973320;28;20345;-79
2023/01/08 09:23:47;;;;;;;20.97;10.67;;;3.80;99.90;;;;;;4974461;28;20702;-77
2023/01/08 09:26:15;;;;;;;19.30;10.40;;;3.90;99.90;;;;;;4957885;28;20199;-76
2023/01/08 09:28:42;;;;;;;22.80;10.57;;;3.80;99.90;;;;;;4957288;28;20300;-74
2023/01/08 09:31:09;;;;;;;18.30;9.77;;;3.90;99.90;;;;;;4973349;28;20235;-78
2023/01/08 09:33:36;;;;;;;18.83;9.87;;;3.80;99.90;;;;;;4973696;28;20203;-76
2023/01/08 09:36:03;;;;;;;18.97;9.77;;;3.90;99.90;;;;;;4976154;28;20606;-75
2023/01/08 09:38:30;;;;;;;19.47;9.47;;;3.90;99.90;;;;;;4974584;28;20237;-78
2023/01/08 09:41:05;;;;;;;18.13;9.37;;;3.80;99.90;;;;;;4977239;28;20277;-78
2023/01/08 09:43:35;;;;;;;19.67;10.13;;;3.90;99.90;;;;;;4957681;28;20577;-78
2023/01/08 09:46:04;;;;;;;19.93;9.73;;;4.00;99.90;;;;;;4956482;28;20244;-80
2023/01/08 09:48:38;;;;;;;20.13;9.73;;;4.00;99.90;;;;;;4974229;28;20596;-80
2023/01/08 09:51:13;;;;;;;19.07;9.63;;;4.20;99.90;;;;;;4973198;28;20205;-77
2023/01/08 09:53:42;;;;;;;19.80;9.63;;;4.20;99.90;;;;;;4957739;28;20196;-77
2023/01/08 09:56:17;;;;;;;17.60;9.20;;;4.20;99.90;;;;;;4971751;28;20368;-78
2023/01/08 09:58:49;;;;;;;18.20;9.97;;;4.20;99.90;;;;;;4994190;28;20198;-84
2023/01/08 10:01:39;;;;;;;20.60;10.40;;;4.10;99.90;;;;;;4993588;28;20220;-82
2023/01/08 10:04:13;;;;;;;17.43;9.47;;;4.20;99.90;;;;;;4992780;28;20265;-77
2023/01/08 10:06:45;;;;;;;17.57;9.53;;;4.10;99.90;;;;;;4991989;28;20236;-76
2023/01/08 10:09:13;;;;;;;18.93;9.60;;;4.00;99.90;;;;;;4992367;28;20197;-85
2023/01/08 10:11:49;;;;;;;19.13;9.80;;;4.10;99.90;;;;;;4993474;28;20190;-75
2023/01/08 10:14:24;;;;;;;19.63;10.13;;;4.10;99.90;;;;;;4993312;28;20511;-83
2023/01/08 10:17:13;;;;;;;21.50;10.67;;;4.10;99.90;;;;;;4992123;28;20192;-80
2023/01/08 10:19:40;;;;;;;18.13;9.73;;;4.20;99.90;;;;;;4993617;28;20224;-77
2023/01/08 10:22:31;;;;;;;18.60;9.90;;;4.10;99.90;;;;;;4976711;28;20198;-79
2023/01/08 10:25:08;;;;;;;19.90;10.37;;;4.10;99.90;;;;;;5001683;28;20235;-77
2023/01/08 10:27:48;;;;;;;19.80;10.43;;;4.20;99.90;;;;;;4992460;28;20194;-76
2023/01/08 10:30:19;;;;;;;19.87;10.10;;;4.20;99.90;;;;;;4991992;28;20232;-82
2023/01/08 10:32:54;;;;;;;19.20;10.03;;;4.10;99.90;;;;;;4992082;28;20279;-76
2023/01/08 10:35:31;;;;;;;19.93;10.50;;;4.00;99.90;;;;;;4993569;28;20193;-79
2023/01/08 10:37:59;;;;;;;23.03;11.17;;;4.10;99.90;;;;;;4998841;28;20588;-74
2023/01/08 10:40:30;;;;;;;19.70;11.17;;;4.10;99.90;;;;;;4974433;28;20212;-80
2023/01/08 10:43:05;;;;;;;20.63;10.80;;;4.10;99.90;;;;;;4988692;28;20620;-81
2023/01/08 10:45:32;;;;;;;23.73;11.33;;;4.20;99.90;;;;;;4956127;28;20679;-80
2023/01/08 10:48:03;;;;;;;20.47;10.87;;;4.10;99.90;;;;;;4957497;28;20269;-81
2023/01/08 10:50:32;;;;;;;21.83;10.77;;;4.10;99.90;;;;;;4972745;28;20299;-82
2023/01/08 10:53:04;;;;;;;24.30;11.60;;;4.10;99.90;;;;;;4972843;28;20208;-82
2023/01/08 10:55:36;;;;;;;21.47;11.57;;;4.00;99.90;;;;;;4956172;28;20680;-80
2023/01/08 10:58:09;;;;;;;22.87;11.30;;;3.90;99.90;;;;;;4978767;28;20202;-83
2023/01/08 11:00:36;;;;;;;24.30;11.87;;;3.90;99.90;;;;;;4977241;28;20653;-81
2023/01/08 11:03:06;;;;;;;23.73;11.80;;;3.90;99.90;;;;;;4960764;28;20202;-82
2023/01/08 11:05:41;;;;;;;25.07;11.80;;;3.90;99.90;;;;;;4992393;28;20256;-79
2023/01/08 11:08:17;;;;;;;23.53;11.67;;;3.90;99.90;;;;;;4959985;28;20201;-80
2023/01/08 11:10:55;;;;;;;23.60;12.03;;;3.90;99.90;;;;;;4977023;28;20287;-77
2023/01/08 11:13:23;;;;;;;24.30;12.13;;;4.00;99.90;;;;;;4975238;28;20302;-76
2023/01/08 11:16:11;;;;;;;27.87;12.50;;;4.10;99.90;;;;;;4976838;28;20190;-81
2023/01/08 11:18:47;;;;;;;23.80;12.23;;;4.00;99.90;;;;;;4991872;28;20246;-80
2023/01/08 11:21:25;;;;;;;26.27;12.60;;;4.10;99.90;;;;;;4959234;28;20212;-78
2023/01/08 11:24:11;;;;;;;25.87;12.90;;;4.00;99.90;;;;;;4959250;28;20716;-75
2023/01/08 11:26:42;;;;;;;23.93;12.50;;;4.10;99.90;;;;;;4959114;28;20219;-76
2023/01/08 11:29:22;;;;;;;25.83;13.23;;;4.10;99.90;;;;;;4980953;28;20253;-79
2023/01/08 11:32:03;;;;;;;24.60;13.00;;;4.20;99.90;;;;;;4959032;28;20257;-77
2023/01/08 11:34:59;;;;;;;29.40;13.13;;;4.10;99.90;;;;;;4976502;28;20183;-78
2023/01/08 11:37:30;;;;;;;28.10;13.07;;;4.10;99.90;;;;;;4935442;29;20313;-76
2023/01/08 11:39:57;;;;;;;26.40;13.60;;;4.10;99.90;;;;;;4935668;29;20660;-74
2023/01/08 11:42:52;;;;;;;26.63;13.57;;;4.20;99.90;;;;;;4935825;29;20207;-75
2023/01/08 11:45:37;;;;;;;24.93;13.60;;;4.10;99.90;;;;;;4935467;29;20714;-78
2023/01/08 11:48:07;;;;;;;23.73;12.90;;;4.10;99.90;;;;;;4935644;29;20239;-76
2023/01/08 11:50:37;;;;;;;28.83;14.07;;;4.10;99.90;;;;;;4919007;29;20199;-77
2023/01/08 11:53:34;;;;;;;24.37;13.30;;;4.10;99.90;;;;;;4935809;29;20233;-80
2023/01/08 11:56:03;;;;;;;26.57;13.37;;;4.20;99.90;;;;;;4920645;29;20236;-76
2023/01/08 11:58:52;;;;;;;28.43;14.53;;;4.00;99.90;;;;;;4935744;29;20200;-80
2023/01/08 12:01:31;;;;;;;28.53;14.57;;;3.90;99.90;;;;;;4882092;29;20210;-76
2023/01/08 12:04:41;;;;;;;27.40;14.90;;;3.90;99.90;;;;;;4897843;29;20205;-76
2023/01/08 12:07:38;;;;;;;28.23;15.03;;;3.80;99.90;;;;;;4885922;29;20231;-75
2023/01/08 12:10:42;;;;;;;27.30;14.73;;;4.10;99.90;;;;;;4893450;29;20803;-71
2023/01/08 12:13:35;;;;;;;30.47;15.87;;;3.80;99.90;;;;;;4881991;29;20719;-78
2023/01/08 12:16:24;;;;;;;32.33;15.60;;;3.80;99.90;;;;;;4896304;29;20717;-84
2023/01/08 12:18:57;;;;;;;31.17;16.10;;;3.80;99.90;;;;;;4882576;29;20747;-79
2023/01/08 12:21:46;;;;;;;29.13;15.67;;;3.90;99.90;;;;;;4882704;29;20513;-83
2023/01/08 12:24:36;;;;;;;34.17;15.03;;;3.90;99.90;;;;;;4897159;29;20304;-84
2023/01/08 12:27:12;;;;;;;29.83;15.83;;;3.80;99.90;;;;;;4897116;29;20335;-79
2023/01/08 12:29:51;;;;;;;30.20;15.47;;;3.80;99.90;;;;;;4896991;29;20212;-77
2023/01/08 12:32:46;;;;;;;32.20;15.67;;;3.90;99.90;;;;;;4897074;29;20573;-75
2023/01/08 12:36:14;;;;;;;;;;;;;;;;;;;;;
2023/01/08 12:39:59;;;;;;;;;;;;;;;;;;;;;
2023/01/08 12:42:52;;;;;;;31.67;14.67;;;4.00;99.90;;;;;;4892177;29;20197;-71
2023/01/08 12:45:40;;;;;;;31.17;15.57;;;3.90;99.90;;;;;;4857938;29;20238;-83
2023/01/08 12:48:17;;;;;;;30.10;14.97;;;4.10;99.90;;;;;;4859745;29;20206;-75
2023/01/08 12:50:50;;;;;;;29.50;14.97;;;4.00;99.90;;;;;;4843945;29;20310;-76
2023/01/08 12:53:23;;;;;;;29.20;14.67;;;4.00;99.90;;;;;;4828521;29;20591;-77
2023/01/08 12:56:18;;;;;;;28.07;14.77;;;4.10;99.90;;;;;;4851954;29;20723;-78
2023/01/08 12:59:03;;;;;;;28.57;14.77;;;4.00;99.90;;;;;;4877716;29;20208;-78
2023/01/08 13:02:03;;;;;;;28.87;15.47;;;4.00;99.90;;;;;;4845456;29;20198;-74
2023/01/08 13:04:49;;;;;;;27.47;14.70;;;3.90;99.90;;;;;;4864134;29;20682;-76
2023/01/08 13:07:26;;;;;;;32.10;16.50;;;3.80;99.90;;;;;;4876496;29;20214;-76